Time,TemperatureF,DewpointF,PressureIn,WindDirection,WindDirectionDegrees,WindSpeedMPH,WindSpeedGustMPH,Humidity,HourlyPrecipIn,Conditions,Clouds,dailyrainin,SoftwareType,DateUTC
2013-01-02 00:01:00,31.2,23.6,31.17,SW,225,6.7,6.7,73,0.00,,CLR,0.00,VWS V14.00,2013-01-02 08:01:00,
2013-01-02 00:06:00,31.2,23.6,31.17,SW,225,6.7,6.7,73,0.00,,CLR,0.00,VWS V14.00,2013-01-02 08:06:00,
2013-01-02 00:11:00,31.6,24.0,31.17,SW,225,6.9,6.9,73,0.00,,CLR,0.00,VWS V14.00,2013-01-02 08:11:00,
2013-01-02 00:16:00,31.6,23.6,31.17,SW,225,7.3,7.3,72,0.00,,CLR,0.00,VWS V14.00,2013-01-02 08:16:00,
2013-01-02 00:21:00,31.6,23.6,31.17,SW,225,4.4,4.4,72,0.00,,CLR,0.00,VWS V14.00,2013-01-02 08:21:00,
2013-01-02 00:26:00,31.2,23.6,31.17,SSW,202,4.0,4.0,73,0.00,,CLR,0.00,VWS V14.00,2013-01-02 08:26:00,
2013-01-02 00:31:00,31.2,23.6,31.17,WSW,248,10.5,10.5,73,0.00,,CLR,0.00,VWS V14.00,2013-01-02 08:31:00,
2013-01-02 00:36:00,31.2,23.6,31.17,WSW,248,5.3,5.3,73,0.00,,CLR,0.00,VWS V14.00,2013-01-02 08:36:00,
2013-01-02 00:41:00,31.2,23.6,31.17,SW,225,4.2,4.2,73,0.00,,CLR,0.00,VWS V14.00,2013-01-02 08:41:00,
2013-01-02 00:46:00,31.1,23.8,31.17,WSW,248,6.7,6.7,74,0.00,,CLR,0.00,VWS V14.00,2013-01-02 08:46:00,
2013-01-02 00:51:00,30.9,23.6,31.16,SW,225,2.9,2.9,74,0.00,,CLR,0.00,VWS V14.00,2013-01-02 08:51:00,
2013-01-02 00:56:00,31.1,23.5,31.16,WSW,248,6.9,6.9,73,0.00,,CLR,0.00,VWS V14.00,2013-01-02 08:56:00,
2013-01-02 01:01:00,31.1,23.5,31.16,SW,225,3.1,3.1,73,0.00,,CLR,0.00,VWS V14.00,2013-01-02 09:01:00,
2013-01-02 01:06:00,31.2,23.6,31.16,SW,225,8.0,8.0,73,0.00,,CLR,0.00,VWS V14.00,2013-01-02 09:06:00,
2013-01-02 01:11:00,31.2,23.6,31.16,SW,225,9.6,9.6,73,0.00,,CLR,0.00,VWS V14.00,2013-01-02 09:11:00,
2013-01-02 01:16:00,31.4,23.4,31.16,SW,225,0.0,0.0,72,0.00,,CLR,0.00,VWS V14.00,2013-01-02 09:16:00,
2013-01-02 01:21:00,31.2,23.6,31.16,SW,225,4.4,4.4,73,0.00,,CLR,0.00,VWS V14.00,2013-01-02 09:21:00,
2013-01-02 01:26:00,30.9,23.3,31.15,SW,225,0.0,0.0,73,0.00,,CLR,0.00,VWS V14.00,2013-01-02 09:26:00,
2013-01-02 01:31:00,30.9,23.6,31.16,SW,225,6.9,6.9,74,0.00,,CLR,0.00,VWS V14.00,2013-01-02 09:31:00,
2013-01-02 01:36:00,30.9,23.6,31.16,SSW,202,0.0,0.0,74,0.00,,CLR,0.00,VWS V14.00,2013-01-02 09:36:00,
2013-01-02 01:41:00,30.7,23.4,31.15,SW,225,5.1,5.1,74,0.00,,CLR,0.00,VWS V14.00,2013-01-02 09:41:00,
2013-01-02 01:46:00,30.9,23.3,31.15,SSW,202,4.6,4.6,73,0.00,,CLR,0.00,VWS V14.00,2013-01-02 09:46:00,
2013-01-02 01:51:00,31.2,23.6,31.16,SW,225,2.9,2.9,73,0.00,,CLR,0.00,VWS V14.00,2013-01-02 09:51:00,
2013-01-02 01:56:00,31.2,23.2,31.15,SSW,202,8.0,8.0,72,0.00,,CLR,0.00,VWS V14.00,2013-01-02 09:56:00,
2013-01-02 02:01:00,31.8,23.5,31.16,SW,225,3.5,3.5,71,0.00,,CLR,0.00,VWS V14.00,2013-01-02 10:01:00,
2013-01-02 02:06:00,32.1,23.4,31.16,SSW,202,0.0,0.0,70,0.00,,CLR,0.00,VWS V14.00,2013-01-02 10:06:00,
2013-01-02 02:11:00,32.1,23.4,31.16,SSW,202,7.3,7.3,70,0.00,,CLR,0.00,VWS V14.00,2013-01-02 10:11:00,
2013-01-02 02:16:00,32.1,23.4,31.15,South,180,3.5,3.5,70,0.00,,CLR,0.00,VWS V14.00,2013-01-02 10:16:00,
2013-01-02 02:21:00,32.3,23.6,31.15,SSW,202,6.2,6.2,70,0.00,,CLR,0.00,VWS V14.00,2013-01-02 10:21:00,
2013-01-02 02:26:00,32.5,23.5,31.15,SSW,202,5.1,5.1,69,0.00,,CLR,0.00,VWS V14.00,2013-01-02 10:26:00,
2013-01-02 02:31:00,32.7,23.7,31.15,SSW,202,4.4,4.4,69,0.00,,CLR,0.00,VWS V14.00,2013-01-02 10:31:00,
2013-01-02 02:36:00,32.7,23.3,31.15,SSE,158,0.0,0.0,68,0.00,,CLR,0.00,VWS V14.00,2013-01-02 10:36:00,
2013-01-02 02:41:00,32.9,23.5,31.16,South,180,0.0,0.0,68,0.00,,CLR,0.00,VWS V14.00,2013-01-02 10:41:00,
2013-01-02 02:46:00,32.7,23.3,31.15,SSE,158,0.0,0.0,68,0.00,,CLR,0.00,VWS V14.00,2013-01-02 10:46:00,
2013-01-02 02:51:00,32.7,23.3,31.15,SSE,158,0.0,0.0,68,0.00,,CLR,0.00,VWS V14.00,2013-01-02 10:51:00,
2013-01-02 02:56:00,32.7,23.3,31.15,SE,135,0.0,0.0,68,0.00,,CLR,0.00,VWS V14.00,2013-01-02 10:56:00,
2013-01-02 03:01:00,32.7,23.3,31.15,SSE,158,0.0,0.0,68,0.00,,CLR,0.00,VWS V14.00,2013-01-02 11:01:00,
2013-01-02 03:06:00,32.7,23.3,31.15,SSE,158,0.0,0.0,68,0.00,,CLR,0.00,VWS V14.00,2013-01-02 11:06:00,
2013-01-02 03:11:00,32.7,23.3,31.15,North,0,0.0,0.0,68,0.00,,CLR,0.00,VWS V14.00,2013-01-02 11:11:00,
2013-01-02 03:16:00,33.0,22.9,31.15,SE,135,3.8,3.8,66,0.00,,CLR,0.00,VWS V14.00,2013-01-02 11:16:00,
2013-01-02 03:21:00,33.4,23.3,31.15,South,180,0.0,0.0,66,0.00,,CLR,0.00,VWS V14.00,2013-01-02 11:21:00,
2013-01-02 03:26:00,33.4,23.3,31.15,South,180,0.0,0.0,66,0.00,,CLR,0.00,VWS V14.00,2013-01-02 11:26:00,
2013-01-02 03:31:00,33.6,23.5,31.15,South,180,1.3,1.3,66,0.00,,CLR,0.00,VWS V14.00,2013-01-02 11:31:00,
2013-01-02 03:36:00,33.6,23.5,31.15,SSE,158,4.6,4.6,66,0.00,,CLR,0.00,VWS V14.00,2013-01-02 11:36:00,
2013-01-02 03:41:00,33.6,23.5,31.14,SE,135,0.0,0.0,66,0.00,,CLR,0.00,VWS V14.00,2013-01-02 11:41:00,
2013-01-02 03:46:00,33.4,23.6,31.14,SE,135,0.0,0.0,67,0.00,,CLR,0.00,VWS V14.00,2013-01-02 11:46:00,
2013-01-02 03:51:00,33.4,23.6,31.14,SE,135,6.9,6.9,67,0.00,,CLR,0.00,VWS V14.00,2013-01-02 11:51:00,
2013-01-02 03:56:00,33.4,23.6,31.14,SE,135,1.3,1.3,67,0.00,,CLR,0.00,VWS V14.00,2013-01-02 11:56:00,
2013-01-02 04:01:00,33.6,23.5,31.13,SE,135,5.1,5.1,66,0.00,,CLR,0.00,VWS V14.00,2013-01-02 12:01:00,
2013-01-02 04:06:00,33.6,23.5,31.14,SE,135,5.1,5.1,66,0.00,,CLR,0.00,VWS V14.00,2013-01-02 12:06:00,
2013-01-02 04:11:00,33.6,23.1,31.13,SE,135,3.5,3.5,65,0.00,,CLR,0.00,VWS V14.00,2013-01-02 12:11:00,
2013-01-02 04:16:00,33.6,23.1,31.13,SE,135,2.0,2.0,65,0.00,,CLR,0.00,VWS V14.00,2013-01-02 12:16:00,
2013-01-02 04:21:00,33.6,23.1,31.13,SE,135,6.4,6.4,65,0.00,,CLR,0.00,VWS V14.00,2013-01-02 12:21:00,
2013-01-02 04:26:00,33.8,22.9,31.13,SE,135,1.3,1.3,64,0.00,,CLR,0.00,VWS V14.00,2013-01-02 12:26:00,
2013-01-02 04:31:00,33.9,23.0,31.13,ESE,112,9.6,9.6,64,0.00,,CLR,0.00,VWS V14.00,2013-01-02 12:31:00,
2013-01-02 04:36:00,34.1,22.8,31.13,SE,135,0.0,0.0,63,0.00,,CLR,0.00,VWS V14.00,2013-01-02 12:36:00,
2013-01-02 04:41:00,34.1,22.8,31.13,SE,135,6.7,6.7,63,0.00,,CLR,0.00,VWS V14.00,2013-01-02 12:41:00,
2013-01-02 04:46:00,33.9,22.6,31.13,SE,135,9.1,9.1,63,0.00,,CLR,0.00,VWS V14.00,2013-01-02 12:46:00,
2013-01-02 04:51:00,34.1,23.2,31.13,SE,135,0.0,0.0,64,0.00,,CLR,0.00,VWS V14.00,2013-01-02 12:51:00,
2013-01-02 04:56:00,33.9,22.6,31.13,SE,135,6.7,6.7,63,0.00,,CLR,0.00,VWS V14.00,2013-01-02 12:56:00,
2013-01-02 05:01:00,33.9,23.0,31.13,SE,135,7.6,7.6,64,0.00,,CLR,0.00,VWS V14.00,2013-01-02 13:01:00,
2013-01-02 05:06:00,33.8,22.9,31.13,SE,135,1.5,1.5,64,0.00,,CLR,0.00,VWS V14.00,2013-01-02 13:06:00,
2013-01-02 05:11:00,33.6,22.7,31.13,SSE,158,0.0,0.0,64,0.00,,CLR,0.00,VWS V14.00,2013-01-02 13:11:00,
2013-01-02 05:16:00,33.6,22.7,31.13,SE,135,5.3,5.3,64,0.00,,CLR,0.00,VWS V14.00,2013-01-02 13:16:00,
2013-01-02 05:21:00,33.8,22.5,31.13,SE,135,2.0,2.0,63,0.00,,CLR,0.00,VWS V14.00,2013-01-02 13:21:00,
2013-01-02 05:26:00,33.9,23.0,31.13,ESE,112,9.1,9.1,64,0.00,,CLR,0.00,VWS V14.00,2013-01-02 13:26:00,
2013-01-02 05:31:00,33.9,22.6,31.13,SE,135,1.5,1.5,63,0.00,,CLR,0.00,VWS V14.00,2013-01-02 13:31:00,
2013-01-02 05:35:00,33.9,23.0,31.13,SSE,158,4.9,4.9,64,0.00,,CLR,0.00,VWS V14.00,2013-01-02 13:35:00,
2013-01-02 05:40:00,33.9,23.0,31.13,SE,135,4.4,4.4,64,0.00,,CLR,0.00,VWS V14.00,2013-01-02 13:40:00,
2013-01-02 05:45:00,33.9,23.0,31.13,SSE,158,0.0,0.0,64,0.00,,CLR,0.00,VWS V14.00,2013-01-02 13:45:00,
2013-01-02 05:50:00,33.6,22.7,31.13,SSE,158,0.0,0.0,64,0.00,,CLR,0.00,VWS V14.00,2013-01-02 13:50:00,
2013-01-02 05:55:00,33.6,22.7,31.13,SSE,158,1.5,1.5,64,0.00,,CLR,0.00,VWS V14.00,2013-01-02 13:55:00,
2013-01-02 06:00:00,33.6,22.7,31.13,SSE,158,0.0,0.0,64,0.00,,CLR,0.00,VWS V14.00,2013-01-02 14:00:00,
2013-01-02 06:05:00,33.6,22.4,31.13,SE,135,0.0,0.0,63,0.00,,CLR,0.00,VWS V14.00,2013-01-02 14:05:00,
2013-01-02 06:10:00,33.6,22.4,31.13,SE,135,2.9,2.9,63,0.00,,CLR,0.00,VWS V14.00,2013-01-02 14:10:00,
2013-01-02 06:15:00,33.6,22.7,31.13,SSE,158,0.0,0.0,64,0.00,,CLR,0.00,VWS V14.00,2013-01-02 14:15:00,
2013-01-02 06:20:00,33.6,22.7,31.13,SE,135,0.0,0.0,64,0.00,,CLR,0.00,VWS V14.00,2013-01-02 14:20:00,
2013-01-02 06:25:00,33.6,22.4,31.13,SE,135,0.0,0.0,63,0.00,,CLR,0.00,VWS V14.00,2013-01-02 14:25:00,
2013-01-02 06:30:00,33.6,22.7,31.13,SE,135,6.4,6.4,64,0.00,,CLR,0.00,VWS V14.00,2013-01-02 14:30:00,
2013-01-02 06:35:00,33.8,22.5,31.13,SE,135,0.0,0.0,63,0.00,,CLR,0.00,VWS V14.00,2013-01-02 14:35:00,
2013-01-02 06:40:00,33.8,22.5,31.13,SE,135,0.0,0.0,63,0.00,,CLR,0.00,VWS V14.00,2013-01-02 14:40:00,
2013-01-02 06:45:00,33.8,22.5,31.13,SE,135,0.0,0.0,63,0.00,,CLR,0.00,VWS V14.00,2013-01-02 14:45:00,
2013-01-02 06:50:00,33.8,22.9,31.13,SE,135,0.0,0.0,64,0.00,,CLR,0.00,VWS V14.00,2013-01-02 14:50:00,
2013-01-02 06:55:00,33.6,22.7,31.13,SE,135,0.0,0.0,64,0.00,,CLR,0.00,VWS V14.00,2013-01-02 14:55:00,
2013-01-02 07:00:00,33.6,22.7,31.13,SSE,158,0.0,0.0,64,0.00,,CLR,0.00,VWS V14.00,2013-01-02 15:00:00,
2013-01-02 07:05:00,33.6,22.7,31.14,SE,135,0.0,0.0,64,0.00,,CLR,0.00,VWS V14.00,2013-01-02 15:05:00,
2013-01-02 07:10:00,33.6,22.4,31.13,SE,135,5.3,5.3,63,0.00,,CLR,0.00,VWS V14.00,2013-01-02 15:10:00,
2013-01-02 07:15:00,33.6,22.4,31.14,SE,135,6.7,6.7,63,0.00,,CLR,0.00,VWS V14.00,2013-01-02 15:15:00,
2013-01-02 07:20:00,33.6,22.4,31.13,SE,135,5.5,5.5,63,0.00,,CLR,0.00,VWS V14.00,2013-01-02 15:20:00,
2013-01-02 07:25:00,33.6,22.4,31.13,SE,135,0.0,0.0,63,0.00,,CLR,0.00,VWS V14.00,2013-01-02 15:25:00,
2013-01-02 07:30:00,33.6,22.4,31.13,SE,135,5.8,5.8,63,0.00,,CLR,0.00,VWS V14.00,2013-01-02 15:30:00,
2013-01-02 07:35:00,33.8,22.5,31.13,ESE,112,0.6,0.6,63,0.00,,CLR,0.00,VWS V14.00,2013-01-02 15:35:00,
2013-01-02 07:40:00,33.8,22.5,31.13,SSE,158,3.1,3.1,63,0.00,,CLR,0.00,VWS V14.00,2013-01-02 15:40:00,
2013-01-02 07:45:00,33.6,22.4,31.13,ESE,112,6.2,6.2,63,0.00,,CLR,0.00,VWS V14.00,2013-01-02 15:45:00,
2013-01-02 07:50:00,33.8,22.5,31.13,ESE,112,0.0,0.0,63,0.00,,CLR,0.00,VWS V14.00,2013-01-02 15:50:00,
2013-01-02 07:55:00,33.6,22.7,31.13,SSE,158,0.0,0.0,64,0.00,,CLR,0.00,VWS V14.00,2013-01-02 15:55:00,
2013-01-02 08:00:00,33.4,22.5,31.14,SE,135,0.0,0.0,64,0.00,,CLR,0.00,VWS V14.00,2013-01-02 16:00:00,
2013-01-02 08:05:00,33.6,22.7,31.14,South,180,0.0,0.0,64,0.00,,CLR,0.00,VWS V14.00,2013-01-02 16:05:00,
2013-01-02 08:10:00,34.1,22.8,31.13,SSE,158,0.0,0.0,63,0.00,,CLR,0.00,VWS V14.00,2013-01-02 16:10:00,
2013-01-02 08:15:00,35.2,23.5,31.13,SSE,158,0.0,0.0,62,0.00,,CLR,0.00,VWS V14.00,2013-01-02 16:15:00,
2013-01-02 08:20:00,36.3,24.1,31.14,SSE,158,0.0,0.0,61,0.00,,CLR,0.00,VWS V14.00,2013-01-02 16:20:00,
2013-01-02 08:25:00,37.2,24.2,31.14,ESE,112,0.0,0.0,59,0.00,,CLR,0.00,VWS V14.00,2013-01-02 16:25:00,
2013-01-02 08:30:00,38.1,25.1,31.14,SE,135,0.0,0.0,59,0.00,,CLR,0.00,VWS V14.00,2013-01-02 16:30:00,
2013-01-02 08:35:00,39.3,25.8,31.14,SE,135,2.2,2.2,58,0.00,,CLR,0.00,VWS V14.00,2013-01-02 16:35:00,
2013-01-02 08:40:00,40.1,26.1,31.14,SSE,158,0.0,0.0,57,0.00,,CLR,0.00,VWS V14.00,2013-01-02 16:40:00,
2013-01-02 08:45:00,40.8,26.3,31.14,SSE,158,3.1,3.1,56,0.00,,CLR,0.00,VWS V14.00,2013-01-02 16:45:00,
2013-01-02 08:50:00,41.3,25.5,31.14,SE,135,2.0,2.0,53,0.00,,CLR,0.00,VWS V14.00,2013-01-02 16:50:00,
2013-01-02 08:55:00,41.5,25.2,31.14,SE,135,0.0,0.0,52,0.00,,CLR,0.00,VWS V14.00,2013-01-02 16:55:00,
2013-01-02 09:00:00,41.9,26.0,31.15,SE,135,0.0,0.0,53,0.00,,CLR,0.00,VWS V14.00,2013-01-02 17:00:00,
2013-01-02 09:05:00,42.4,26.0,31.14,ESE,112,0.0,0.0,52,0.00,,CLR,0.00,VWS V14.00,2013-01-02 17:05:00,
2013-01-02 09:10:00,42.9,25.6,31.15,ENE,68,3.3,3.3,50,0.00,,CLR,0.00,VWS V14.00,2013-01-02 17:10:00,
2013-01-02 09:15:00,42.6,24.8,31.15,SE,135,0.0,0.0,49,0.00,,CLR,0.00,VWS V14.00,2013-01-02 17:15:00,
2013-01-02 09:20:00,42.6,25.3,31.15,SE,135,6.9,6.9,50,0.00,,CLR,0.00,VWS V14.00,2013-01-02 17:20:00,
2013-01-02 09:25:00,42.9,25.6,31.15,SE,135,2.0,2.0,50,0.00,,CLR,0.00,VWS V14.00,2013-01-02 17:25:00,
2013-01-02 09:30:00,42.6,25.3,31.15,SE,135,0.0,0.0,50,0.00,,CLR,0.00,VWS V14.00,2013-01-02 17:30:00,
2013-01-02 09:35:00,42.4,25.1,31.15,SE,135,0.2,0.2,50,0.00,,CLR,0.00,VWS V14.00,2013-01-02 17:35:00,
2013-01-02 09:40:00,42.6,25.8,31.15,SSE,158,0.0,0.0,51,0.00,,CLR,0.00,VWS V14.00,2013-01-02 17:40:00,
2013-01-02 09:45:00,43.3,26.4,31.15,SE,135,2.9,2.9,51,0.00,,CLR,0.00,VWS V14.00,2013-01-02 17:45:00,
2013-01-02 09:50:00,43.7,26.3,31.15,ESE,112,6.4,6.4,50,0.00,,CLR,0.00,VWS V14.00,2013-01-02 17:50:00,
2013-01-02 09:55:00,44.2,26.3,31.15,SE,135,0.0,0.0,49,0.00,,CLR,0.00,VWS V14.00,2013-01-02 17:55:00,
2013-01-02 10:00:00,44.4,26.5,31.15,SE,135,5.3,5.3,49,0.00,,CLR,0.00,VWS V14.00,2013-01-02 18:00:00,
2013-01-02 10:05:00,44.4,26.5,31.15,SE,135,0.8,0.8,49,0.00,,CLR,0.00,VWS V14.00,2013-01-02 18:05:00,
2013-01-02 10:10:00,44.2,25.8,31.15,ESE,112,6.2,6.2,48,0.00,,CLR,0.00,VWS V14.00,2013-01-02 18:10:00,
2013-01-02 10:15:00,44.2,26.3,31.15,SE,135,6.4,6.4,49,0.00,,CLR,0.00,VWS V14.00,2013-01-02 18:15:00,
2013-01-02 10:20:00,44.4,26.0,31.15,SE,135,0.0,0.0,48,0.00,,CLR,0.00,VWS V14.00,2013-01-02 18:20:00,
2013-01-02 10:25:00,44.7,26.2,31.15,SE,135,1.1,1.1,48,0.00,,CLR,0.00,VWS V14.00,2013-01-02 18:25:00,
2013-01-02 10:30:00,44.9,26.4,31.15,SE,135,0.0,1.1,48,0.00,,CLR,0.00,VWS V14.00,2013-01-02 18:30:00,
2013-01-02 10:35:00,45.5,25.9,31.15,SE,135,0.0,4.9,46,0.00,,CLR,0.00,VWS V14.00,2013-01-02 18:35:00,
2013-01-02 10:40:00,46.2,27.1,31.15,ESE,112,0.0,0.0,47,0.00,,CLR,0.00,VWS V14.00,2013-01-02 18:40:00,
2013-01-02 10:45:00,46.9,26.7,31.15,ESE,112,0.0,0.0,45,0.00,,CLR,0.00,VWS V14.00,2013-01-02 18:45:00,
2013-01-02 10:50:00,46.2,26.0,31.15,SE,135,0.0,8.0,45,0.00,,CLR,0.00,VWS V14.00,2013-01-02 18:50:00,
2013-01-02 10:55:00,46.0,25.9,31.15,SSE,158,0.0,0.0,45,0.00,,CLR,0.00,VWS V14.00,2013-01-02 18:55:00,
2013-01-02 11:00:00,46.0,26.9,31.15,SE,135,0.0,0.0,47,0.00,,CLR,0.00,VWS V14.00,2013-01-02 19:00:00,
2013-01-02 11:05:00,46.5,27.4,31.15,SSE,158,0.0,0.0,47,0.00,,CLR,0.00,VWS V14.00,2013-01-02 19:05:00,
2013-01-02 11:10:00,48.7,28.3,31.15,SE,135,0.0,4.9,45,0.00,,CLR,0.00,VWS V14.00,2013-01-02 19:10:00,
2013-01-02 11:15:00,49.1,28.1,31.15,SE,135,0.0,0.0,44,0.00,,CLR,0.00,VWS V14.00,2013-01-02 19:15:00,
2013-01-02 11:20:00,49.1,28.1,31.15,SSE,158,0.0,0.0,44,0.00,,CLR,0.00,VWS V14.00,2013-01-02 19:20:00,
2013-01-02 11:25:00,49.6,28.6,31.14,SE,135,0.0,0.0,44,0.00,,CLR,0.00,VWS V14.00,2013-01-02 19:25:00,
2013-01-02 11:30:00,49.2,28.2,31.14,SE,135,0.0,0.0,44,0.00,,CLR,0.00,VWS V14.00,2013-01-02 19:30:00,
2013-01-02 11:35:00,49.2,27.7,31.14,ESE,112,7.8,7.8,43,0.00,,CLR,0.00,VWS V14.00,2013-01-02 19:35:00,
2013-01-02 11:40:00,48.5,26.5,31.14,SE,135,1.1,1.1,42,0.00,,CLR,0.00,VWS V14.00,2013-01-02 19:40:00,
2013-01-02 11:45:00,48.0,26.0,31.14,ENE,68,9.3,9.3,42,0.00,,CLR,0.00,VWS V14.00,2013-01-02 19:45:00,
2013-01-02 11:50:00,47.4,26.0,31.13,ESE,112,7.1,7.1,43,0.00,,CLR,0.00,VWS V14.00,2013-01-02 19:50:00,
2013-01-02 11:55:00,47.1,26.3,31.13,SE,135,1.3,1.3,44,0.00,,CLR,0.00,VWS V14.00,2013-01-02 19:55:00,
2013-01-02 12:00:00,47.1,26.3,31.13,East,90,11.6,11.6,44,0.00,,CLR,0.00,VWS V14.00,2013-01-02 20:00:00,
2013-01-02 12:05:00,46.7,26.0,31.13,ESE,112,0.0,0.0,44,0.00,,CLR,0.00,VWS V14.00,2013-01-02 20:05:00,
2013-01-02 12:10:00,46.9,26.1,31.12,SSE,158,11.1,11.1,44,0.00,,CLR,0.00,VWS V14.00,2013-01-02 20:10:00,
2013-01-02 12:15:00,46.9,26.1,31.12,SE,135,7.6,7.6,44,0.00,,CLR,0.00,VWS V14.00,2013-01-02 20:15:00,
2013-01-02 12:20:00,46.5,26.3,31.12,SE,135,7.1,7.1,45,0.00,,CLR,0.00,VWS V14.00,2013-01-02 20:20:00,
2013-01-02 12:25:00,46.5,25.8,31.11,SE,135,13.6,13.6,44,0.00,,CLR,0.00,VWS V14.00,2013-01-02 20:25:00,
2013-01-02 12:30:00,46.2,25.5,31.12,SE,135,9.8,9.8,44,0.00,,CLR,0.00,VWS V14.00,2013-01-02 20:30:00,
2013-01-02 12:35:00,46.2,25.5,31.11,SE,135,9.1,9.1,44,0.00,,CLR,0.00,VWS V14.00,2013-01-02 20:35:00,
2013-01-02 12:40:00,46.0,25.3,31.11,ESE,112,13.4,13.4,44,0.00,,CLR,0.00,VWS V14.00,2013-01-02 20:40:00,
2013-01-02 12:45:00,46.0,25.3,31.11,ESE,112,10.9,10.9,44,0.00,,CLR,0.00,VWS V14.00,2013-01-02 20:45:00,
2013-01-02 12:50:00,46.0,25.3,31.11,East,90,2.9,2.9,44,0.00,,CLR,0.00,VWS V14.00,2013-01-02 20:50:00,
2013-01-02 12:55:00,45.6,25.0,31.11,ESE,112,11.4,11.4,44,0.00,,CLR,0.00,VWS V14.00,2013-01-02 20:55:00,
2013-01-02 13:00:00,45.3,25.2,31.11,East,90,11.8,11.8,45,0.00,,CLR,0.00,VWS V14.00,2013-01-02 21:00:00,
2013-01-02 13:05:00,44.9,24.9,31.11,SE,135,9.8,9.8,45,0.00,,CLR,0.00,VWS V14.00,2013-01-02 21:05:00,
2013-01-02 13:10:00,44.9,25.4,31.11,ESE,112,8.9,8.9,46,0.00,,CLR,0.00,VWS V14.00,2013-01-02 21:10:00,
2013-01-02 13:15:00,44.9,24.9,31.11,East,90,10.9,10.9,45,0.00,,CLR,0.00,VWS V14.00,2013-01-02 21:15:00,
2013-01-02 13:20:00,44.9,25.4,31.10,ESE,112,6.4,6.4,46,0.00,,CLR,0.00,VWS V14.00,2013-01-02 21:20:00,
2013-01-02 13:25:00,44.9,25.4,31.10,ENE,68,6.0,6.0,46,0.00,,CLR,0.00,VWS V14.00,2013-01-02 21:25:00,
2013-01-02 13:30:00,45.1,25.6,31.10,East,90,7.8,7.8,46,0.00,,CLR,0.00,VWS V14.00,2013-01-02 21:30:00,
2013-01-02 13:35:00,44.6,24.6,31.10,ESE,112,11.8,11.8,45,0.00,,CLR,0.00,VWS V14.00,2013-01-02 21:35:00,
2013-01-02 13:40:00,44.4,25.5,31.10,ESE,112,9.3,9.3,47,0.00,,CLR,0.00,VWS V14.00,2013-01-02 21:40:00,
2013-01-02 13:45:00,44.4,24.9,31.10,ESE,112,8.5,8.5,46,0.00,,CLR,0.00,VWS V14.00,2013-01-02 21:45:00,
2013-01-02 13:50:00,44.2,24.8,31.10,ESE,112,9.3,9.3,46,0.00,,CLR,0.00,VWS V14.00,2013-01-02 21:50:00,
2013-01-02 13:55:00,43.8,25.9,31.10,East,90,9.8,9.8,49,0.00,,CLR,0.00,VWS V14.00,2013-01-02 21:55:00,
2013-01-02 14:00:00,43.5,25.6,31.10,East,90,10.9,10.9,49,0.00,,CLR,0.00,VWS V14.00,2013-01-02 22:00:00,
2013-01-02 14:05:00,43.5,25.1,31.09,ESE,112,9.6,9.6,48,0.00,,CLR,0.00,VWS V14.00,2013-01-02 22:05:00,
2013-01-02 14:10:00,43.5,24.6,31.09,ESE,112,9.8,9.8,47,0.00,,CLR,0.00,VWS V14.00,2013-01-02 22:10:00,
2013-01-02 14:15:00,43.3,25.4,31.10,ENE,68,11.8,11.8,49,0.00,,CLR,0.00,VWS V14.00,2013-01-02 22:15:00,
2013-01-02 14:20:00,42.6,24.8,31.09,East,90,10.0,10.0,49,0.00,,CLR,0.00,VWS V14.00,2013-01-02 22:20:00,
2013-01-02 14:25:00,42.6,25.3,31.09,ESE,112,10.0,10.0,50,0.00,,CLR,0.00,VWS V14.00,2013-01-02 22:25:00,
2013-01-02 14:30:00,42.6,24.8,31.09,East,90,12.0,12.0,49,0.00,,CLR,0.00,VWS V14.00,2013-01-02 22:30:00,
2013-01-02 14:35:00,42.9,26.0,31.09,ESE,112,6.7,6.7,51,0.00,,CLR,0.00,VWS V14.00,2013-01-02 22:35:00,
2013-01-02 14:40:00,43.5,25.1,31.09,ESE,112,15.8,15.8,48,0.00,,CLR,0.00,VWS V14.00,2013-01-02 22:40:00,
2013-01-02 14:45:00,43.8,25.4,31.10,East,90,11.8,11.8,48,0.00,,CLR,0.00,VWS V14.00,2013-01-02 22:45:00,
2013-01-02 14:50:00,44.2,24.2,31.10,ESE,112,14.5,14.5,45,0.00,,CLR,0.00,VWS V14.00,2013-01-02 22:50:00,
2013-01-02 14:55:00,44.4,25.5,31.09,ESE,112,10.7,10.7,47,0.00,,CLR,0.00,VWS V14.00,2013-01-02 22:55:00,
2013-01-02 15:00:00,44.4,24.9,31.09,ESE,112,10.7,10.7,46,0.00,,CLR,0.00,VWS V14.00,2013-01-02 23:00:00,
2013-01-02 15:05:00,44.4,25.5,31.09,ESE,112,15.4,15.4,47,0.00,,CLR,0.00,VWS V14.00,2013-01-02 23:05:00,
2013-01-02 15:10:00,44.4,26.5,31.10,ESE,112,12.5,12.5,49,0.00,,CLR,0.00,VWS V14.00,2013-01-02 23:10:00,
2013-01-02 15:15:00,43.8,24.4,31.09,SE,135,11.6,11.6,46,0.00,,CLR,0.00,VWS V14.00,2013-01-02 23:15:00,
2013-01-02 15:20:00,43.5,25.1,31.09,East,90,9.8,9.8,48,0.00,,CLR,0.00,VWS V14.00,2013-01-02 23:20:00,
2013-01-02 15:25:00,42.9,24.6,31.09,ESE,112,13.6,13.6,48,0.00,,CLR,0.00,VWS V14.00,2013-01-02 23:25:00,
2013-01-02 15:30:00,42.6,24.8,31.10,East,90,10.5,10.5,49,0.00,,CLR,0.00,VWS V14.00,2013-01-02 23:30:00,
2013-01-02 15:35:00,42.4,25.1,31.10,East,90,11.4,11.4,50,0.00,,CLR,0.00,VWS V14.00,2013-01-02 23:35:00,
2013-01-02 15:40:00,42.0,23.8,31.10,ESE,112,15.2,15.2,48,0.00,,CLR,0.00,VWS V14.00,2013-01-02 23:40:00,
2013-01-02 15:45:00,41.5,24.7,31.10,ESE,112,8.0,8.0,51,0.00,,CLR,0.00,VWS V14.00,2013-01-02 23:45:00,
2013-01-02 15:50:00,41.5,25.2,31.10,East,90,9.3,9.3,52,0.00,,CLR,0.00,VWS V14.00,2013-01-02 23:50:00,
2013-01-02 15:55:00,41.3,24.5,31.09,ESE,112,8.5,8.5,51,0.00,,CLR,0.00,VWS V14.00,2013-01-02 23:55:00,
2013-01-02 16:00:00,40.8,24.5,31.09,ESE,112,15.2,15.2,52,0.00,,CLR,0.00,VWS V14.00,2013-01-03 00:00:00,
2013-01-02 16:05:00,40.2,23.1,31.09,ESE,112,10.0,10.0,50,0.00,,CLR,0.00,VWS V14.00,2013-01-03 00:05:00,
2013-01-02 16:10:00,40.1,23.4,31.09,ENE,68,15.2,15.2,51,0.00,,CLR,0.00,VWS V14.00,2013-01-03 00:10:00,
2013-01-02 16:15:00,39.5,23.4,31.08,SE,135,16.7,16.7,52,0.00,,CLR,0.00,VWS V14.00,2013-01-03 00:15:00,
2013-01-02 16:20:00,38.8,23.6,31.08,East,90,13.8,13.8,54,0.00,,CLR,0.00,VWS V14.00,2013-01-03 00:20:00,
2013-01-02 16:25:00,38.4,22.8,31.08,East,90,13.4,13.4,53,0.00,,CLR,0.00,VWS V14.00,2013-01-03 00:25:00,
2013-01-02 16:30:00,38.1,22.9,31.08,ENE,68,15.4,15.4,54,0.00,,CLR,0.00,VWS V14.00,2013-01-03 00:30:00,
2013-01-02 16:35:00,37.9,22.8,31.08,ENE,68,15.8,15.8,54,0.00,,CLR,0.00,VWS V14.00,2013-01-03 00:35:00,
2013-01-02 16:40:00,37.5,23.2,31.09,East,90,17.0,17.0,56,0.00,,CLR,0.00,VWS V14.00,2013-01-03 00:40:00,
2013-01-02 16:45:00,37.5,22.8,31.09,East,90,12.3,12.3,55,0.00,,CLR,0.00,VWS V14.00,2013-01-03 00:45:00,
2013-01-02 16:50:00,37.2,23.0,31.09,ESE,112,15.8,15.8,56,0.00,,CLR,0.00,VWS V14.00,2013-01-03 00:50:00,
2013-01-02 16:55:00,37.2,23.0,31.09,East,90,14.7,14.7,56,0.00,,CLR,0.00,VWS V14.00,2013-01-03 00:55:00,
2013-01-02 17:00:00,37.0,21.9,31.09,ENE,68,16.3,16.3,54,0.00,,CLR,0.00,VWS V14.00,2013-01-03 01:00:00,
2013-01-02 17:05:00,37.0,22.4,31.09,ENE,68,16.5,16.5,55,0.00,,CLR,0.00,VWS V14.00,2013-01-03 01:05:00,
2013-01-02 17:10:00,36.6,22.8,31.09,ESE,112,10.5,10.5,57,0.00,,CLR,0.00,VWS V14.00,2013-01-03 01:10:00,
2013-01-02 17:15:00,36.6,22.8,31.08,East,90,16.1,16.1,57,0.00,,CLR,0.00,VWS V14.00,2013-01-03 01:15:00,
2013-01-02 17:20:00,36.5,22.3,31.09,East,90,12.5,12.5,56,0.00,,CLR,0.00,VWS V14.00,2013-01-03 01:20:00,
2013-01-02 17:25:00,36.3,22.5,31.08,East,90,13.8,13.8,57,0.00,,CLR,0.00,VWS V14.00,2013-01-03 01:25:00,
2013-01-02 17:30:00,36.3,22.5,31.08,ENE,68,14.9,14.9,57,0.00,,CLR,0.00,VWS V14.00,2013-01-03 01:30:00,
2013-01-02 17:35:00,36.1,22.4,31.09,East,90,12.0,12.0,57,0.00,,CLR,0.00,VWS V14.00,2013-01-03 01:35:00,
2013-01-02 17:40:00,36.1,22.8,31.08,East,90,12.0,12.0,58,0.00,,CLR,0.00,VWS V14.00,2013-01-03 01:40:00,
2013-01-02 17:45:00,36.1,22.4,31.08,East,90,14.0,14.0,57,0.00,,CLR,0.00,VWS V14.00,2013-01-03 01:45:00,
2013-01-02 17:50:00,36.1,22.4,31.08,East,90,15.6,15.6,57,0.00,,CLR,0.00,VWS V14.00,2013-01-03 01:50:00,
2013-01-02 17:55:00,36.1,22.4,31.08,East,90,11.6,11.6,57,0.00,,CLR,0.00,VWS V14.00,2013-01-03 01:55:00,
2013-01-02 18:00:00,35.9,22.6,31.08,East,90,15.4,15.4,58,0.00,,CLR,0.00,VWS V14.00,2013-01-03 02:00:00,
2013-01-02 18:05:00,35.9,22.2,31.07,ESE,112,10.9,10.9,57,0.00,,CLR,0.00,VWS V14.00,2013-01-03 02:05:00,
2013-01-02 18:10:00,35.9,22.2,31.08,ESE,112,12.0,12.0,57,0.00,,CLR,0.00,VWS V14.00,2013-01-03 02:10:00,
2013-01-02 18:15:00,35.7,22.4,31.07,East,90,9.1,9.1,58,0.00,,CLR,0.00,VWS V14.00,2013-01-03 02:15:00,
2013-01-02 18:20:00,35.7,22.0,31.07,ESE,112,9.8,9.8,57,0.00,,CLR,0.00,VWS V14.00,2013-01-03 02:20:00,
2013-01-02 18:25:00,35.7,22.0,31.07,ESE,112,11.1,11.1,57,0.00,,CLR,0.00,VWS V14.00,2013-01-03 02:25:00,
2013-01-02 18:30:00,35.7,22.0,31.08,ESE,112,12.0,12.0,57,0.00,,CLR,0.00,VWS V14.00,2013-01-03 02:30:00,
2013-01-02 18:35:00,35.7,22.4,31.07,ESE,112,13.4,13.4,58,0.00,,CLR,0.00,VWS V14.00,2013-01-03 02:35:00,
2013-01-02 18:40:00,35.7,22.0,31.07,ESE,112,14.3,14.3,57,0.00,,CLR,0.00,VWS V14.00,2013-01-03 02:40:00,
2013-01-02 18:45:00,35.7,21.6,31.07,ESE,112,9.3,9.3,56,0.00,,CLR,0.00,VWS V14.00,2013-01-03 02:45:00,
2013-01-02 18:50:00,35.7,21.6,31.07,SE,135,10.9,10.9,56,0.00,,CLR,0.00,VWS V14.00,2013-01-03 02:50:00,
2013-01-02 18:55:00,35.7,22.4,31.07,ENE,68,8.9,8.9,58,0.00,,CLR,0.00,VWS V14.00,2013-01-03 02:55:00,
2013-01-02 19:00:00,35.6,21.9,31.07,ESE,112,10.5,10.5,57,0.00,,CLR,0.00,VWS V14.00,2013-01-03 03:00:00,
2013-01-02 19:05:00,35.4,21.7,31.07,East,90,10.0,10.0,57,0.00,,CLR,0.00,VWS V14.00,2013-01-03 03:05:00,
2013-01-02 19:10:00,35.4,21.7,31.07,ESE,112,12.0,12.0,57,0.00,,CLR,0.00,VWS V14.00,2013-01-03 03:10:00,
2013-01-02 19:15:00,35.4,21.7,31.06,East,90,10.5,10.5,57,0.00,,CLR,0.00,VWS V14.00,2013-01-03 03:15:00,
2013-01-02 19:20:00,35.4,21.3,31.06,ESE,112,12.9,12.9,56,0.00,,CLR,0.00,VWS V14.00,2013-01-03 03:20:00,
2013-01-02 19:25:00,35.4,21.7,31.07,ESE,112,10.2,10.2,57,0.00,,CLR,0.00,VWS V14.00,2013-01-03 03:25:00,
2013-01-02 19:30:00,35.4,21.7,31.07,ESE,112,10.2,10.2,57,0.00,,CLR,0.00,VWS V14.00,2013-01-03 03:30:00,
2013-01-02 19:35:00,35.4,21.3,31.07,ESE,112,12.7,12.7,56,0.00,,CLR,0.00,VWS V14.00,2013-01-03 03:35:00,
2013-01-02 19:40:00,35.4,21.3,31.06,ESE,112,10.2,10.2,56,0.00,,CLR,0.00,VWS V14.00,2013-01-03 03:40:00,
2013-01-02 19:45:00,35.4,21.7,31.06,ESE,112,9.6,9.6,57,0.00,,CLR,0.00,VWS V14.00,2013-01-03 03:45:00,
2013-01-02 19:50:00,35.4,21.7,31.06,ESE,112,8.9,8.9,57,0.00,,CLR,0.00,VWS V14.00,2013-01-03 03:50:00,
2013-01-02 19:55:00,35.4,21.7,31.06,ESE,112,10.9,10.9,57,0.00,,CLR,0.00,VWS V14.00,2013-01-03 03:55:00,
2013-01-02 20:00:00,35.4,21.3,31.06,SE,135,6.7,6.7,56,0.00,,CLR,0.00,VWS V14.00,2013-01-03 04:00:00,
2013-01-02 20:05:00,35.4,21.3,31.06,SE,135,8.2,11.8,56,0.00,,CLR,0.00,VWS V14.00,2013-01-03 04:05:00,
2013-01-02 20:10:00,35.4,21.7,31.06,ESE,112,11.4,11.4,57,0.00,,CLR,0.00,VWS V14.00,2013-01-03 04:10:00,
2013-01-02 20:15:00,35.4,21.3,31.06,ESE,112,9.8,9.8,56,0.00,,CLR,0.00,VWS V14.00,2013-01-03 04:15:00,
2013-01-02 20:20:00,35.4,21.3,31.06,SE,135,9.6,9.6,56,0.00,,CLR,0.00,VWS V14.00,2013-01-03 04:20:00,
2013-01-02 20:25:00,35.4,21.7,31.06,SE,135,8.5,8.5,57,0.00,,CLR,0.00,VWS V14.00,2013-01-03 04:25:00,
2013-01-02 20:30:00,35.2,21.5,31.06,ESE,112,8.9,8.9,57,0.00,,CLR,0.00,VWS V14.00,2013-01-03 04:30:00,
2013-01-02 20:35:00,35.2,21.1,31.06,East,90,9.6,9.6,56,0.00,,CLR,0.00,VWS V14.00,2013-01-03 04:35:00,
2013-01-02 20:40:00,35.2,21.5,31.06,SE,135,3.8,3.8,57,0.00,,CLR,0.00,VWS V14.00,2013-01-03 04:40:00,
2013-01-02 20:45:00,35.2,21.1,31.06,ESE,112,9.6,9.6,56,0.00,,CLR,0.00,VWS V14.00,2013-01-03 04:45:00,
2013-01-02 20:50:00,35.2,21.5,31.06,SE,135,9.1,9.1,57,0.00,,CLR,0.00,VWS V14.00,2013-01-03 04:50:00,
2013-01-02 20:55:00,35.0,21.3,31.06,SE,135,4.0,4.0,57,0.00,,CLR,0.00,VWS V14.00,2013-01-03 04:55:00,
2013-01-02 21:00:00,35.0,21.3,31.06,SE,135,0.0,0.0,57,0.00,,CLR,0.00,VWS V14.00,2013-01-03 05:00:00,
2013-01-02 21:02:00,34.8,21.5,31.05,ESE,112,7.6,7.6,58,0.00,,CLR,0.00,VWS V14.00,2013-01-03 05:02:00,
2013-01-02 21:07:00,34.8,21.1,31.05,SE,135,4.9,4.9,57,0.00,,CLR,0.00,VWS V14.00,2013-01-03 05:07:00,
2013-01-02 21:12:00,34.7,21.5,31.05,SSE,158,1.5,1.5,58,0.00,,CLR,0.00,VWS V14.00,2013-01-03 05:12:00,
2013-01-02 21:17:00,34.3,21.1,31.05,SSE,158,5.3,5.3,58,0.00,,CLR,0.00,VWS V14.00,2013-01-03 05:17:00,
2013-01-02 21:22:00,34.3,21.5,31.05,SE,135,0.0,0.0,59,0.00,,CLR,0.00,VWS V14.00,2013-01-03 05:22:00,
2013-01-02 21:27:00,34.3,21.1,31.05,SE,135,0.0,0.0,58,0.00,,CLR,0.00,VWS V14.00,2013-01-03 05:27:00,
2013-01-02 21:32:00,34.3,21.5,31.05,SE,135,4.0,4.0,59,0.00,,CLR,0.00,VWS V14.00,2013-01-03 05:32:00,
2013-01-02 21:37:00,34.3,21.1,31.05,SE,135,1.7,1.7,58,0.00,,CLR,0.00,VWS V14.00,2013-01-03 05:37:00,
2013-01-02 21:42:00,34.3,21.5,31.05,SE,135,7.8,7.8,59,0.00,,CLR,0.00,VWS V14.00,2013-01-03 05:42:00,
2013-01-02 21:47:00,34.3,21.1,31.05,SSE,158,6.0,6.0,58,0.00,,CLR,0.00,VWS V14.00,2013-01-03 05:47:00,
2013-01-02 21:52:00,34.3,21.1,31.05,SE,135,0.0,0.0,58,0.00,,CLR,0.00,VWS V14.00,2013-01-03 05:52:00,
2013-01-02 21:57:00,34.3,21.1,31.05,SSE,158,0.0,0.0,58,0.00,,CLR,0.00,VWS V14.00,2013-01-03 05:57:00,
2013-01-02 22:02:00,34.3,21.5,31.05,SSE,158,6.4,6.4,59,0.00,,CLR,0.00,VWS V14.00,2013-01-03 06:02:00,
2013-01-02 22:07:00,34.3,21.5,31.05,SE,135,0.0,0.0,59,0.00,,CLR,0.00,VWS V14.00,2013-01-03 06:07:00,
2013-01-02 22:12:00,34.3,21.5,31.05,SSE,158,0.0,0.0,59,0.00,,CLR,0.00,VWS V14.00,2013-01-03 06:12:00,
2013-01-02 22:17:00,34.1,21.3,31.05,SE,135,0.0,0.0,59,0.00,,CLR,0.00,VWS V14.00,2013-01-03 06:17:00,
2013-01-02 22:22:00,33.9,21.1,31.05,SSE,158,1.5,1.5,59,0.00,,CLR,0.00,VWS V14.00,2013-01-03 06:22:00,
2013-01-02 22:27:00,33.6,20.8,31.05,SSE,158,0.0,0.0,59,0.00,,CLR,0.00,VWS V14.00,2013-01-03 06:27:00,
2013-01-02 22:32:00,33.4,21.0,31.05,SSE,158,0.0,0.0,60,0.00,,CLR,0.00,VWS V14.00,2013-01-03 06:32:00,
2013-01-02 22:37:00,33.2,20.8,31.05,SSE,158,0.0,0.0,60,0.00,,CLR,0.00,VWS V14.00,2013-01-03 06:37:00,
2013-01-02 22:42:00,33.2,20.8,31.05,SE,135,0.0,0.0,60,0.00,,CLR,0.00,VWS V14.00,2013-01-03 06:42:00,
2013-01-02 22:47:00,33.4,21.0,31.05,SE,135,0.0,0.0,60,0.00,,CLR,0.00,VWS V14.00,2013-01-03 06:47:00,
2013-01-02 22:52:00,33.4,21.0,31.05,SE,135,0.0,0.0,60,0.00,,CLR,0.00,VWS V14.00,2013-01-03 06:52:00,
2013-01-02 22:57:00,33.4,21.0,31.05,South,180,0.0,0.0,60,0.00,,CLR,0.00,VWS V14.00,2013-01-03 06:57:00,
2013-01-02 23:02:00,33.2,20.8,31.05,South,180,0.0,0.0,60,0.00,,CLR,0.00,VWS V14.00,2013-01-03 07:02:00,
2013-01-02 23:07:00,33.0,20.6,31.05,SSE,158,1.7,1.7,60,0.00,,CLR,0.00,VWS V14.00,2013-01-03 07:07:00,
2013-01-02 23:12:00,33.2,20.8,31.05,SSE,158,0.0,0.0,60,0.00,,CLR,0.00,VWS V14.00,2013-01-03 07:12:00,
2013-01-02 23:17:00,33.2,20.8,31.05,SSE,158,0.0,0.0,60,0.00,,CLR,0.00,VWS V14.00,2013-01-03 07:17:00,
2013-01-02 23:22:00,33.4,21.0,31.05,SSE,158,3.3,3.3,60,0.00,,CLR,0.00,VWS V14.00,2013-01-03 07:22:00,
2013-01-02 23:27:00,33.2,20.8,31.05,SSE,158,0.0,0.0,60,0.00,,CLR,0.00,VWS V14.00,2013-01-03 07:27:00,
2013-01-02 23:32:00,33.0,20.6,31.05,ENE,68,0.0,4.9,60,0.00,,CLR,0.00,VWS V14.00,2013-01-03 07:32:00,
2013-01-02 23:37:00,33.2,20.8,31.05,SE,135,0.0,0.0,60,0.00,,CLR,0.00,VWS V14.00,2013-01-03 07:37:00,
2013-01-02 23:42:00,33.4,21.0,31.05,SE,135,2.9,2.9,60,0.00,,CLR,0.00,VWS V14.00,2013-01-03 07:42:00,
2013-01-02 23:47:00,33.4,21.0,31.05,SE,135,0.0,0.0,60,0.00,,CLR,0.00,VWS V14.00,2013-01-03 07:47:00,
2013-01-02 23:52:00,33.4,21.0,31.05,SE,135,0.0,0.0,60,0.00,,CLR,0.00,VWS V14.00,2013-01-03 07:52:00,
2013-01-02 23:57:00,33.2,20.8,31.04,SE,135,0.0,0.0,60,0.00,,CLR,0.00,VWS V14.00,2013-01-03 07:57:00,